sensor_id;sensor_type;location;lat;lon;timestamp;P1;durP1;ratioP1;P2;durP2;ratioP2
5060;SDS011;2549;52.128;21.068;2023-05-07T00:02:06;3.85;;;1.92;;
5060;SDS011;2549;52.128;21.068;2023-05-07T00:04:33;2.60;;;2.40;;
5060;SDS011;2549;52.128;21.068;2023-05-07T00:07:04;4.70;;;2.50;;
5060;SDS011;2549;52.128;21.068;2023-05-07T00:09:31;2.10;;;2.00;;
5060;SDS011;2549;52.128;21.068;2023-05-07T00:11:58;6.68;;;2.38;;
5060;SDS011;2549;52.128;21.068;2023-05-07T00:14:25;2.70;;;2.50;;
5060;SDS011;2549;52.128;21.068;2023-05-07T00:16:52;1.98;;;1.88;;
5060;SDS011;2549;52.128;21.068;2023-05-07T00:19:19;2.15;;;2.05;;
5060;SDS011;2549;52.128;21.068;2023-05-07T00:21:46;2.33;;;2.13;;
5060;SDS011;2549;52.128;21.068;2023-05-07T00:24:13;3.30;;;2.20;;
5060;SDS011;2549;52.128;21.068;2023-05-07T00:26:39;1.80;;;1.70;;
5060;SDS011;2549;52.128;21.068;2023-05-07T00:29:06;6.53;;;2.58;;
5060;SDS011;2549;52.128;21.068;2023-05-07T00:31:33;4.80;;;2.25;;
5060;SDS011;2549;52.128;21.068;2023-05-07T00:34:01;4.40;;;2.28;;
5060;SDS011;2549;52.128;21.068;2023-05-07T00:36:28;2.00;;;1.90;;
5060;SDS011;2549;52.128;21.068;2023-05-07T00:38:56;7.50;;;2.55;;
5060;SDS011;2549;52.128;21.068;2023-05-07T00:41:25;4.22;;;3.00;;
5060;SDS011;2549;52.128;21.068;2023-05-07T00:43:52;3.47;;;2.33;;
5060;SDS011;2549;52.128;21.068;2023-05-07T00:46:20;3.45;;;2.53;;
5060;SDS011;2549;52.128;21.068;2023-05-07T00:48:47;2.92;;;2.25;;
5060;SDS011;2549;52.128;21.068;2023-05-07T00:51:16;2.80;;;2.38;;
5060;SDS011;2549;52.128;21.068;2023-05-07T00:53:44;2.55;;;2.20;;
5060;SDS011;2549;52.128;21.068;2023-05-07T00:56:11;10.93;;;2.88;;
5060;SDS011;2549;52.128;21.068;2023-05-07T00:58:38;3.13;;;2.63;;
5060;SDS011;2549;52.128;21.068;2023-05-07T01:01:06;2.90;;;2.63;;
5060;SDS011;2549;52.128;21.068;2023-05-07T01:03:33;3.70;;;2.60;;
5060;SDS011;2549;52.128;21.068;2023-05-07T01:06:00;2.53;;;2.35;;
5060;SDS011;2549;52.128;21.068;2023-05-07T01:08:29;3.80;;;2.40;;
5060;SDS011;2549;52.128;21.068;2023-05-07T01:10:58;4.20;;;2.47;;
5060;SDS011;2549;52.128;21.068;2023-05-07T01:13:25;3.17;;;2.85;;
5060;SDS011;2549;52.128;21.068;2023-05-07T01:15:54;2.70;;;1.90;;
5060;SDS011;2549;52.128;21.068;2023-05-07T01:18:20;2.22;;;2.03;;
5060;SDS011;2549;52.128;21.068;2023-05-07T01:20:48;4.78;;;3.10;;
5060;SDS011;2549;52.128;21.068;2023-05-07T01:23:15;2.50;;;2.00;;
5060;SDS011;2549;52.128;21.068;2023-05-07T01:25:50;1.92;;;1.83;;
5060;SDS011;2549;52.128;21.068;2023-05-07T01:28:20;6.25;;;2.35;;
5060;SDS011;2549;52.128;21.068;2023-05-07T01:30:49;5.30;;;2.70;;
5060;SDS011;2549;52.128;21.068;2023-05-07T01:33:21;2.53;;;2.33;;
5060;SDS011;2549;52.128;21.068;2023-05-07T01:35:50;1.80;;;1.70;;
5060;SDS011;2549;52.128;21.068;2023-05-07T01:38:20;2.95;;;2.65;;
5060;SDS011;2549;52.128;21.068;2023-05-07T01:40:48;2.55;;;1.85;;
5060;SDS011;2549;52.128;21.068;2023-05-07T01:43:16;1.60;;;1.50;;
5060;SDS011;2549;52.128;21.068;2023-05-07T01:45:43;5.28;;;1.55;;
5060;SDS011;2549;52.128;21.068;2023-05-07T01:48:11;3.20;;;1.92;;
5060;SDS011;2549;52.128;21.068;2023-05-07T01:50:40;1.80;;;1.70;;
5060;SDS011;2549;52.128;21.068;2023-05-07T01:53:08;3.55;;;1.80;;
5060;SDS011;2549;52.128;21.068;2023-05-07T01:55:35;2.30;;;2.10;;
5060;SDS011;2549;52.128;21.068;2023-05-07T01:58:03;5.18;;;2.40;;
5060;SDS011;2549;52.128;21.068;2023-05-07T02:00:30;7.95;;;1.77;;
5060;SDS011;2549;52.128;21.068;2023-05-07T02:02:57;2.20;;;2.03;;
5060;SDS011;2549;52.128;21.068;2023-05-07T02:05:25;6.88;;;2.08;;
5060;SDS011;2549;52.128;21.068;2023-05-07T02:07:51;1.92;;;1.80;;
5060;SDS011;2549;52.128;21.068;2023-05-07T02:10:18;2.58;;;2.38;;
5060;SDS011;2549;52.128;21.068;2023-05-07T02:12:45;5.47;;;2.22;;
5060;SDS011;2549;52.128;21.068;2023-05-07T02:15:12;3.15;;;2.10;;
5060;SDS011;2549;52.128;21.068;2023-05-07T02:17:39;2.50;;;2.30;;
5060;SDS011;2549;52.128;21.068;2023-05-07T02:20:28;2.45;;;2.30;;
5060;SDS011;2549;52.128;21.068;2023-05-07T02:22:55;2.22;;;2.13;;
5060;SDS011;2549;52.128;21.068;2023-05-07T02:25:22;2.15;;;2.05;;
5060;SDS011;2549;52.128;21.068;2023-05-07T02:27:49;3.58;;;2.50;;
5060;SDS011;2549;52.128;21.068;2023-05-07T02:30:16;2.45;;;2.10;;
5060;SDS011;2549;52.128;21.068;2023-05-07T02:32:42;2.08;;;1.83;;
5060;SDS011;2549;52.128;21.068;2023-05-07T02:35:09;1.90;;;1.80;;
5060;SDS011;2549;52.128;21.068;2023-05-07T02:37:36;2.00;;;1.60;;
5060;SDS011;2549;52.128;21.068;2023-05-07T02:40:03;3.45;;;1.85;;
5060;SDS011;2549;52.128;21.068;2023-05-07T02:42:31;3.30;;;2.05;;
5060;SDS011;2549;52.128;21.068;2023-05-07T02:44:58;2.15;;;1.95;;
5060;SDS011;2549;52.128;21.068;2023-05-07T02:47:24;2.70;;;2.00;;
5060;SDS011;2549;52.128;21.068;2023-05-07T02:49:54;3.88;;;1.90;;
5060;SDS011;2549;52.128;21.068;2023-05-07T02:52:21;2.13;;;2.03;;
5060;SDS011;2549;52.128;21.068;2023-05-07T02:54:48;1.98;;;1.80;;
5060;SDS011;2549;52.128;21.068;2023-05-07T02:57:15;2.40;;;2.00;;
5060;SDS011;2549;52.128;21.068;2023-05-07T02:59:42;2.25;;;2.05;;
5060;SDS011;2549;52.128;21.068;2023-05-07T03:02:09;1.73;;;1.63;;
5060;SDS011;2549;52.128;21.068;2023-05-07T03:04:37;2.80;;;2.20;;
5060;SDS011;2549;52.128;21.068;2023-05-07T03:07:05;2.65;;;1.88;;
5060;SDS011;2549;52.128;21.068;2023-05-07T03:09:32;3.00;;;1.92;;
5060;SDS011;2549;52.128;21.068;2023-05-07T03:11:59;1.80;;;1.70;;
5060;SDS011;2549;52.128;21.068;2023-05-07T03:14:27;5.20;;;1.98;;
5060;SDS011;2549;52.128;21.068;2023-05-07T03:16:54;2.97;;;1.65;;
5060;SDS011;2549;52.128;21.068;2023-05-07T03:19:21;1.55;;;1.45;;
5060;SDS011;2549;52.128;21.068;2023-05-07T03:21:48;2.00;;;1.90;;
5060;SDS011;2549;52.128;21.068;2023-05-07T03:24:15;3.30;;;2.22;;
5060;SDS011;2549;52.128;21.068;2023-05-07T03:26:42;1.67;;;1.58;;
5060;SDS011;2549;52.128;21.068;2023-05-07T03:29:08;2.40;;;2.20;;
5060;SDS011;2549;52.128;21.068;2023-05-07T03:31:35;2.90;;;1.35;;
5060;SDS011;2549;52.128;21.068;2023-05-07T03:34:03;1.95;;;1.50;;
5060;SDS011;2549;52.128;21.068;2023-05-07T03:36:30;3.28;;;2.00;;
5060;SDS011;2549;52.128;21.068;2023-05-07T03:38:57;1.65;;;1.55;;
5060;SDS011;2549;52.128;21.068;2023-05-07T03:41:24;1.55;;;1.50;;
5060;SDS011;2549;52.128;21.068;2023-05-07T03:43:52;2.83;;;1.98;;
5060;SDS011;2549;52.128;21.068;2023-05-07T03:46:19;1.30;;;1.20;;
5060;SDS011;2549;52.128;21.068;2023-05-07T03:48:46;1.33;;;1.23;;
5060;SDS011;2549;52.128;21.068;2023-05-07T03:51:12;1.52;;;1.42;;
5060;SDS011;2549;52.128;21.068;2023-05-07T03:53:39;5.38;;;1.77;;
5060;SDS011;2549;52.128;21.068;2023-05-07T03:56:06;2.80;;;1.85;;
5060;SDS011;2549;52.128;21.068;2023-05-07T03:58:33;1.33;;;1.33;;
5060;SDS011;2549;52.128;21.068;2023-05-07T04:01:00;1.50;;;1.40;;
5060;SDS011;2549;52.128;21.068;2023-05-07T04:03:28;2.00;;;1.88;;
5060;SDS011;2549;52.128;21.068;2023-05-07T04:05:56;1.38;;;1.38;;
5060;SDS011;2549;52.128;21.068;2023-05-07T04:08:22;5.70;;;1.80;;
5060;SDS011;2549;52.128;21.068;2023-05-07T04:10:54;1.83;;;1.73;;
5060;SDS011;2549;52.128;21.068;2023-05-07T04:13:24;2.50;;;1.45;;
5060;SDS011;2549;52.128;21.068;2023-05-07T04:15:52;4.22;;;1.58;;
5060;SDS011;2549;52.128;21.068;2023-05-07T04:18:19;1.60;;;1.30;;
5060;SDS011;2549;52.128;21.068;2023-05-07T04:20:46;2.08;;;1.48;;
5060;SDS011;2549;52.128;21.068;2023-05-07T04:23:15;1.77;;;1.67;;
5060;SDS011;2549;52.128;21.068;2023-05-07T04:25:42;1.20;;;1.20;;
5060;SDS011;2549;52.128;21.068;2023-05-07T04:28:09;6.47;;;1.52;;
5060;SDS011;2549;52.128;21.068;2023-05-07T04:30:35;1.83;;;1.73;;
5060;SDS011;2549;52.128;21.068;2023-05-07T04:33:02;3.50;;;1.60;;
5060;SDS011;2549;52.128;21.068;2023-05-07T04:35:29;1.50;;;1.40;;
5060;SDS011;2549;52.128;21.068;2023-05-07T04:38:00;1.10;;;1.00;;
5060;SDS011;2549;52.128;21.068;2023-05-07T04:40:28;2.78;;;1.45;;
5060;SDS011;2549;52.128;21.068;2023-05-07T04:42:55;2.00;;;1.65;;
5060;SDS011;2549;52.128;21.068;2023-05-07T04:45:22;1.50;;;1.20;;
5060;SDS011;2549;52.128;21.068;2023-05-07T04:47:50;2.00;;;1.90;;
5060;SDS011;2549;52.128;21.068;2023-05-07T04:50:17;1.60;;;1.50;;
5060;SDS011;2549;52.128;21.068;2023-05-07T04:52:46;2.47;;;1.10;;
5060;SDS011;2549;52.128;21.068;2023-05-07T04:55:15;1.77;;;1.33;;
5060;SDS011;2549;52.128;21.068;2023-05-07T04:57:43;1.42;;;1.42;;
5060;SDS011;2549;52.128;21.068;2023-05-07T05:00:10;2.50;;;1.73;;
5060;SDS011;2549;52.128;21.068;2023-05-07T05:02:38;2.50;;;1.73;;
5060;SDS011;2549;52.128;21.068;2023-05-07T05:05:05;1.92;;;1.73;;
5060;SDS011;2549;52.128;21.068;2023-05-07T05:07:32;1.20;;;1.20;;
5060;SDS011;2549;52.128;21.068;2023-05-07T05:09:59;7.50;;;1.35;;
5060;SDS011;2549;52.128;21.068;2023-05-07T05:12:26;1.10;;;1.10;;
5060;SDS011;2549;52.128;21.068;2023-05-07T05:14:53;1.60;;;1.33;;
5060;SDS011;2549;52.128;21.068;2023-05-07T05:17:20;1.73;;;1.63;;
5060;SDS011;2549;52.128;21.068;2023-05-07T05:19:47;1.25;;;1.15;;
5060;SDS011;2549;52.128;21.068;2023-05-07T05:22:14;1.70;;;1.60;;
5060;SDS011;2549;52.128;21.068;2023-05-07T05:24:41;1.45;;;1.45;;
5060;SDS011;2549;52.128;21.068;2023-05-07T05:27:08;1.55;;;1.45;;
5060;SDS011;2549;52.128;21.068;2023-05-07T05:29:35;1.77;;;1.30;;
5060;SDS011;2549;52.128;21.068;2023-05-07T05:32:02;1.30;;;1.25;;
5060;SDS011;2549;52.128;21.068;2023-05-07T05:34:28;2.10;;;1.55;;
5060;SDS011;2549;52.128;21.068;2023-05-07T05:36:56;1.33;;;1.33;;
5060;SDS011;2549;52.128;21.068;2023-05-07T05:39:23;1.30;;;1.20;;
5060;SDS011;2549;52.128;21.068;2023-05-07T05:41:49;1.40;;;1.30;;
5060;SDS011;2549;52.128;21.068;2023-05-07T05:44:16;1.40;;;1.30;;
5060;SDS011;2549;52.128;21.068;2023-05-07T05:46:43;1.33;;;1.23;;
5060;SDS011;2549;52.128;21.068;2023-05-07T05:49:10;2.67;;;1.23;;
5060;SDS011;2549;52.128;21.068;2023-05-07T05:51:37;1.17;;;1.08;;
5060;SDS011;2549;52.128;21.068;2023-05-07T05:54:04;2.25;;;1.33;;
5060;SDS011;2549;52.128;21.068;2023-05-07T05:56:31;3.10;;;1.20;;
5060;SDS011;2549;52.128;21.068;2023-05-07T05:58:58;1.50;;;1.02;;
5060;SDS011;2549;52.128;21.068;2023-05-07T06:01:25;0.90;;;0.90;;
5060;SDS011;2549;52.128;21.068;2023-05-07T06:03:52;1.30;;;1.20;;
5060;SDS011;2549;52.128;21.068;2023-05-07T06:06:18;1.40;;;1.20;;
5060;SDS011;2549;52.128;21.068;2023-05-07T06:08:45;1.27;;;1.17;;
5060;SDS011;2549;52.128;21.068;2023-05-07T06:11:12;1.27;;;1.10;;
5060;SDS011;2549;52.128;21.068;2023-05-07T06:13:39;2.65;;;1.23;;
5060;SDS011;2549;52.128;21.068;2023-05-07T06:16:06;1.10;;;1.10;;
5060;SDS011;2549;52.128;21.068;2023-05-07T06:18:33;2.38;;;0.93;;
5060;SDS011;2549;52.128;21.068;2023-05-07T06:21:02;1.33;;;1.33;;
5060;SDS011;2549;52.128;21.068;2023-05-07T06:23:29;1.10;;;1.10;;
5060;SDS011;2549;52.128;21.068;2023-05-07T06:25:56;1.23;;;1.20;;
5060;SDS011;2549;52.128;21.068;2023-05-07T06:28:23;1.27;;;1.15;;
5060;SDS011;2549;52.128;21.068;2023-05-07T06:30:50;1.50;;;0.90;;
5060;SDS011;2549;52.128;21.068;2023-05-07T06:33:17;4.30;;;1.33;;
5060;SDS011;2549;52.128;21.068;2023-05-07T06:35:44;3.67;;;1.20;;
5060;SDS011;2549;52.128;21.068;2023-05-07T06:38:11;1.00;;;1.00;;
5060;SDS011;2549;52.128;21.068;2023-05-07T06:40:38;1.55;;;0.90;;
5060;SDS011;2549;52.128;21.068;2023-05-07T06:43:05;0.90;;;0.90;;
5060;SDS011;2549;52.128;21.068;2023-05-07T06:45:32;3.45;;;1.33;;
5060;SDS011;2549;52.128;21.068;2023-05-07T06:47:59;1.30;;;1.20;;
5060;SDS011;2549;52.128;21.068;2023-05-07T06:50:25;1.50;;;1.40;;
5060;SDS011;2549;52.128;21.068;2023-05-07T06:52:52;1.20;;;1.10;;
5060;SDS011;2549;52.128;21.068;2023-05-07T06:55:19;2.05;;;1.30;;
5060;SDS011;2549;52.128;21.068;2023-05-07T06:57:46;1.08;;;1.02;;
5060;SDS011;2549;52.128;21.068;2023-05-07T07:00:13;1.23;;;1.17;;
5060;SDS011;2549;52.128;21.068;2023-05-07T07:02:40;1.27;;;1.20;;
5060;SDS011;2549;52.128;21.068;2023-05-07T07:05:07;0.93;;;0.90;;
5060;SDS011;2549;52.128;21.068;2023-05-07T07:07:34;1.13;;;1.02;;
5060;SDS011;2549;52.128;21.068;2023-05-07T07:10:01;1.20;;;1.17;;
5060;SDS011;2549;52.128;21.068;2023-05-07T07:12:30;1.20;;;1.10;;
5060;SDS011;2549;52.128;21.068;2023-05-07T07:14:57;0.90;;;0.90;;
5060;SDS011;2549;52.128;21.068;2023-05-07T07:17:23;1.35;;;1.25;;
5060;SDS011;2549;52.128;21.068;2023-05-07T07:19:50;1.45;;;1.35;;
5060;SDS011;2549;52.128;21.068;2023-05-07T07:22:17;1.95;;;1.85;;
5060;SDS011;2549;52.128;21.068;2023-05-07T07:24:44;1.27;;;1.27;;
5060;SDS011;2549;52.128;21.068;2023-05-07T07:27:11;0.80;;;0.80;;
5060;SDS011;2549;52.128;21.068;2023-05-07T07:29:38;1.17;;;1.17;;
5060;SDS011;2549;52.128;21.068;2023-05-07T07:32:05;1.30;;;1.20;;
5060;SDS011;2549;52.128;21.068;2023-05-07T07:34:32;1.35;;;1.10;;
5060;SDS011;2549;52.128;21.068;2023-05-07T07:36:59;2.15;;;1.00;;
5060;SDS011;2549;52.128;21.068;2023-05-07T07:39:31;0.85;;;0.85;;
5060;SDS011;2549;52.128;21.068;2023-05-07T07:41:59;1.05;;;1.05;;
5060;SDS011;2549;52.128;21.068;2023-05-07T07:44:27;1.20;;;1.10;;
5060;SDS011;2549;52.128;21.068;2023-05-07T07:46:54;2.35;;;1.10;;
5060;SDS011;2549;52.128;21.068;2023-05-07T07:49:21;1.85;;;1.00;;
5060;SDS011;2549;52.128;21.068;2023-05-07T07:51:48;2.55;;;1.17;;
5060;SDS011;2549;52.128;21.068;2023-05-07T07:54:15;3.50;;;0.98;;
5060;SDS011;2549;52.128;21.068;2023-05-07T07:56:42;1.60;;;1.50;;
5060;SDS011;2549;52.128;21.068;2023-05-07T07:59:09;1.77;;;1.67;;
5060;SDS011;2549;52.128;21.068;2023-05-07T08:01:36;2.22;;;1.40;;
5060;SDS011;2549;52.128;21.068;2023-05-07T08:04:03;1.20;;;1.10;;
5060;SDS011;2549;52.128;21.068;2023-05-07T08:06:32;3.72;;;1.25;;
5060;SDS011;2549;52.128;21.068;2023-05-07T08:08:58;0.93;;;0.93;;
5060;SDS011;2549;52.128;21.068;2023-05-07T08:11:25;1.05;;;0.95;;
5060;SDS011;2549;52.128;21.068;2023-05-07T08:13:53;2.35;;;1.10;;
5060;SDS011;2549;52.128;21.068;2023-05-07T08:16:21;1.60;;;1.25;;
5060;SDS011;2549;52.128;21.068;2023-05-07T08:18:49;2.17;;;1.40;;
5060;SDS011;2549;52.128;21.068;2023-05-07T08:21:16;3.83;;;1.60;;
5060;SDS011;2549;52.128;21.068;2023-05-07T08:23:43;1.25;;;1.10;;
5060;SDS011;2549;52.128;21.068;2023-05-07T08:26:10;1.10;;;1.02;;
5060;SDS011;2549;52.128;21.068;2023-05-07T08:28:37;1.10;;;1.10;;
5060;SDS011;2549;52.128;21.068;2023-05-07T08:31:03;1.15;;;1.15;;
5060;SDS011;2549;52.128;21.068;2023-05-07T08:33:30;1.23;;;1.13;;
5060;SDS011;2549;52.128;21.068;2023-05-07T08:35:57;3.42;;;1.67;;
5060;SDS011;2549;52.128;21.068;2023-05-07T08:38:24;1.20;;;1.10;;
5060;SDS011;2549;52.128;21.068;2023-05-07T08:40:51;1.00;;;1.00;;
5060;SDS011;2549;52.128;21.068;2023-05-07T08:43:18;1.27;;;1.17;;
5060;SDS011;2549;52.128;21.068;2023-05-07T08:45:46;1.00;;;1.00;;
5060;SDS011;2549;52.128;21.068;2023-05-07T08:48:19;1.25;;;1.15;;
5060;SDS011;2549;52.128;21.068;2023-05-07T08:50:51;2.90;;;1.08;;
5060;SDS011;2549;52.128;21.068;2023-05-07T08:53:18;3.00;;;1.83;;
5060;SDS011;2549;52.128;21.068;2023-05-07T08:55:46;1.33;;;1.13;;
5060;SDS011;2549;52.128;21.068;2023-05-07T08:58:14;1.20;;;1.10;;
5060;SDS011;2549;52.128;21.068;2023-05-07T09:00:41;1.58;;;1.48;;
5060;SDS011;2549;52.128;21.068;2023-05-07T09:03:08;3.47;;;1.50;;
5060;SDS011;2549;52.128;21.068;2023-05-07T09:05:38;2.05;;;1.02;;
5060;SDS011;2549;52.128;21.068;2023-05-07T09:08:06;1.10;;;1.10;;
5060;SDS011;2549;52.128;21.068;2023-05-07T09:10:34;1.30;;;1.30;;
5060;SDS011;2549;52.128;21.068;2023-05-07T09:13:02;1.30;;;1.20;;
5060;SDS011;2549;52.128;21.068;2023-05-07T09:15:29;1.40;;;1.30;;
5060;SDS011;2549;52.128;21.068;2023-05-07T09:17:59;1.55;;;1.10;;
5060;SDS011;2549;52.128;21.068;2023-05-07T09:20:30;1.30;;;1.20;;
5060;SDS011;2549;52.128;21.068;2023-05-07T09:22:57;3.75;;;1.35;;
5060;SDS011;2549;52.128;21.068;2023-05-07T09:25:27;0.85;;;0.85;;
5060;SDS011;2549;52.128;21.068;2023-05-07T09:27:59;3.40;;;1.40;;
5060;SDS011;2549;52.128;21.068;2023-05-07T09:30:33;1.17;;;1.08;;
5060;SDS011;2549;52.128;21.068;2023-05-07T09:33:01;1.00;;;1.00;;
5060;SDS011;2549;52.128;21.068;2023-05-07T09:35:29;1.88;;;1.33;;
5060;SDS011;2549;52.128;21.068;2023-05-07T09:37:57;3.30;;;1.20;;
5060;SDS011;2549;52.128;21.068;2023-05-07T09:40:29;2.50;;;1.42;;
5060;SDS011;2549;52.128;21.068;2023-05-07T09:43:07;2.92;;;1.20;;
5060;SDS011;2549;52.128;21.068;2023-05-07T09:45:39;1.67;;;1.20;;
5060;SDS011;2549;52.128;21.068;2023-05-07T09:48:07;3.63;;;1.23;;
5060;SDS011;2549;52.128;21.068;2023-05-07T09:50:40;1.10;;;1.10;;
5060;SDS011;2549;52.128;21.068;2023-05-07T09:53:15;2.20;;;1.10;;
5060;SDS011;2549;52.128;21.068;2023-05-07T09:55:43;3.13;;;1.20;;
5060;SDS011;2549;52.128;21.068;2023-05-07T09:58:11;2.20;;;1.30;;
5060;SDS011;2549;52.128;21.068;2023-05-07T10:00:39;1.05;;;1.05;;
5060;SDS011;2549;52.128;21.068;2023-05-07T10:03:08;1.20;;;1.20;;
5060;SDS011;2549;52.128;21.068;2023-05-07T10:05:37;1.17;;;1.08;;
5060;SDS011;2549;52.128;21.068;2023-05-07T10:08:04;2.08;;;1.40;;
5060;SDS011;2549;52.128;21.068;2023-05-07T10:10:32;1.33;;;1.23;;
5060;SDS011;2549;52.128;21.068;2023-05-07T10:13:03;1.30;;;1.20;;
5060;SDS011;2549;52.128;21.068;2023-05-07T10:15:37;1.80;;;1.30;;
5060;SDS011;2549;52.128;21.068;2023-05-07T10:18:04;8.48;;;1.52;;
5060;SDS011;2549;52.128;21.068;2023-05-07T10:20:34;2.80;;;1.38;;
5060;SDS011;2549;52.128;21.068;2023-05-07T10:23:03;4.60;;;1.20;;
5060;SDS011;2549;52.128;21.068;2023-05-07T10:25:32;3.80;;;1.30;;
5060;SDS011;2549;52.128;21.068;2023-05-07T10:28:01;1.40;;;1.30;;
5060;SDS011;2549;52.128;21.068;2023-05-07T10:30:46;10.27;;;1.20;;
5060;SDS011;2549;52.128;21.068;2023-05-07T10:33:28;3.35;;;1.40;;
5060;SDS011;2549;52.128;21.068;2023-05-07T10:36:00;1.10;;;1.00;;
5060;SDS011;2549;52.128;21.068;2023-05-07T10:38:30;1.13;;;1.13;;
5060;SDS011;2549;52.128;21.068;2023-05-07T10:40:57;4.63;;;1.50;;
5060;SDS011;2549;52.128;21.068;2023-05-07T10:43:24;1.50;;;1.40;;
5060;SDS011;2549;52.128;21.068;2023-05-07T10:51:28;1.25;;;1.15;;
5060;SDS011;2549;52.128;21.068;2023-05-07T10:56:36;1.15;;;1.02;;
5060;SDS011;2549;52.128;21.068;2023-05-07T10:59:29;2.70;;;1.67;;
5060;SDS011;2549;52.128;21.068;2023-05-07T11:01:58;1.23;;;1.13;;
5060;SDS011;2549;52.128;21.068;2023-05-07T11:04:26;1.90;;;1.57;;
5060;SDS011;2549;52.128;21.068;2023-05-07T11:07:10;1.20;;;1.20;;
5060;SDS011;2549;52.128;21.068;2023-05-07T11:15:09;1.03;;;1.03;;
5060;SDS011;2549;52.128;21.068;2023-05-07T11:17:53;1.30;;;1.20;;
5060;SDS011;2549;52.128;21.068;2023-05-07T11:26:05;1.45;;;1.35;;
5060;SDS011;2549;52.128;21.068;2023-05-07T11:28:37;1.00;;;1.00;;
5060;SDS011;2549;52.128;21.068;2023-05-07T11:31:05;1.27;;;1.17;;
5060;SDS011;2549;52.128;21.068;2023-05-07T11:33:33;1.67;;;1.03;;
5060;SDS011;2549;52.128;21.068;2023-05-07T11:36:04;3.15;;;1.42;;
5060;SDS011;2549;52.128;21.068;2023-05-07T11:38:35;2.00;;;1.30;;
5060;SDS011;2549;52.128;21.068;2023-05-07T11:41:03;1.13;;;1.13;;
5060;SDS011;2549;52.128;21.068;2023-05-07T11:43:31;1.10;;;1.00;;
5060;SDS011;2549;52.128;21.068;2023-05-07T11:46:08;1.00;;;0.97;;
5060;SDS011;2549;52.128;21.068;2023-05-07T11:48:37;1.80;;;1.10;;
5060;SDS011;2549;52.128;21.068;2023-05-07T11:51:05;1.53;;;1.10;;
5060;SDS011;2549;52.128;21.068;2023-05-07T11:53:36;1.73;;;1.63;;
5060;SDS011;2549;52.128;21.068;2023-05-07T11:56:11;1.30;;;1.20;;
5060;SDS011;2549;52.128;21.068;2023-05-07T11:58:39;3.37;;;1.20;;
5060;SDS011;2549;52.128;21.068;2023-05-07T12:01:08;1.20;;;1.10;;
5060;SDS011;2549;52.128;21.068;2023-05-07T12:03:36;1.50;;;1.30;;
5060;SDS011;2549;52.128;21.068;2023-05-07T12:06:07;1.40;;;1.30;;
5060;SDS011;2549;52.128;21.068;2023-05-07T12:08:38;1.73;;;1.60;;
5060;SDS011;2549;52.128;21.068;2023-05-07T12:11:07;5.70;;;3.10;;
5060;SDS011;2549;52.128;21.068;2023-05-07T12:13:49;2.40;;;1.50;;
5060;SDS011;2549;52.128;21.068;2023-05-07T12:16:15;1.60;;;1.50;;
5060;SDS011;2549;52.128;21.068;2023-05-07T12:18:43;3.27;;;1.73;;
5060;SDS011;2549;52.128;21.068;2023-05-07T12:21:11;1.40;;;1.33;;
5060;SDS011;2549;52.128;21.068;2023-05-07T12:23:39;1.00;;;1.00;;
5060;SDS011;2549;52.128;21.068;2023-05-07T12:26:06;2.63;;;2.13;;
5060;SDS011;2549;52.128;21.068;2023-05-07T12:28:37;1.30;;;1.20;;
5060;SDS011;2549;52.128;21.068;2023-05-07T12:31:05;1.60;;;1.00;;
5060;SDS011;2549;52.128;21.068;2023-05-07T12:33:33;5.30;;;1.60;;
5060;SDS011;2549;52.128;21.068;2023-05-07T12:36:05;1.33;;;0.97;;
5060;SDS011;2549;52.128;21.068;2023-05-07T12:38:34;1.17;;;1.07;;
5060;SDS011;2549;52.128;21.068;2023-05-07T12:41:03;6.33;;;1.20;;
5060;SDS011;2549;52.128;21.068;2023-05-07T12:43:31;1.67;;;1.00;;
5060;SDS011;2549;52.128;21.068;2023-05-07T12:45:59;1.23;;;1.10;;
5060;SDS011;2549;52.128;21.068;2023-05-07T12:48:28;2.07;;;1.30;;
5060;SDS011;2549;52.128;21.068;2023-05-07T12:50:56;0.87;;;0.87;;
5060;SDS011;2549;52.128;21.068;2023-05-07T12:53:25;1.20;;;1.10;;
5060;SDS011;2549;52.128;21.068;2023-05-07T12:55:53;1.30;;;1.30;;
5060;SDS011;2549;52.128;21.068;2023-05-07T12:58:25;1.33;;;1.23;;
5060;SDS011;2549;52.128;21.068;2023-05-07T13:00:54;6.67;;;1.60;;
5060;SDS011;2549;52.128;21.068;2023-05-07T13:03:29;1.10;;;1.10;;
5060;SDS011;2549;52.128;21.068;2023-05-07T13:05:59;1.10;;;1.10;;
5060;SDS011;2549;52.128;21.068;2023-05-07T13:08:36;1.67;;;1.00;;
5060;SDS011;2549;52.128;21.068;2023-05-07T13:11:07;0.90;;;0.90;;
5060;SDS011;2549;52.128;21.068;2023-05-07T13:13:35;3.03;;;1.07;;
5060;SDS011;2549;52.128;21.068;2023-05-07T13:16:04;4.20;;;1.37;;
5060;SDS011;2549;52.128;21.068;2023-05-07T13:18:32;1.03;;;0.93;;
5060;SDS011;2549;52.128;21.068;2023-05-07T13:21:00;1.40;;;1.30;;
5060;SDS011;2549;52.128;21.068;2023-05-07T13:23:28;4.83;;;1.20;;
5060;SDS011;2549;52.128;21.068;2023-05-07T13:25:55;1.20;;;1.10;;
5060;SDS011;2549;52.128;21.068;2023-05-07T13:28:25;1.30;;;1.20;;
5060;SDS011;2549;52.128;21.068;2023-05-07T13:30:52;1.43;;;1.10;;
5060;SDS011;2549;52.128;21.068;2023-05-07T13:33:21;1.30;;;1.13;;
5060;SDS011;2549;52.128;21.068;2023-05-07T13:35:48;5.40;;;1.40;;
5060;SDS011;2549;52.128;21.068;2023-05-07T13:38:14;2.60;;;1.20;;
5060;SDS011;2549;52.128;21.068;2023-05-07T13:40:42;3.53;;;1.10;;
5060;SDS011;2549;52.128;21.068;2023-05-07T13:43:09;1.27;;;1.20;;
5060;SDS011;2549;52.128;21.068;2023-05-07T13:45:36;1.10;;;1.10;;
5060;SDS011;2549;52.128;21.068;2023-05-07T13:48:03;1.30;;;1.20;;
5060;SDS011;2549;52.128;21.068;2023-05-07T13:50:31;1.50;;;1.10;;
5060;SDS011;2549;52.128;21.068;2023-05-07T13:52:57;1.00;;;1.00;;
5060;SDS011;2549;52.128;21.068;2023-05-07T13:55:24;2.33;;;0.90;;
5060;SDS011;2549;52.128;21.068;2023-05-07T13:57:55;1.10;;;1.10;;
5060;SDS011;2549;52.128;21.068;2023-05-07T14:00:27;1.10;;;1.03;;
5060;SDS011;2549;52.128;21.068;2023-05-07T14:02:55;3.77;;;1.40;;
5060;SDS011;2549;52.128;21.068;2023-05-07T14:05:22;3.03;;;1.57;;
5060;SDS011;2549;52.128;21.068;2023-05-07T14:07:50;0.90;;;0.83;;
5060;SDS011;2549;52.128;21.068;2023-05-07T14:10:18;1.00;;;0.90;;
5060;SDS011;2549;52.128;21.068;2023-05-07T14:12:46;4.80;;;1.30;;
5060;SDS011;2549;52.128;21.068;2023-05-07T14:15:13;3.10;;;1.00;;
5060;SDS011;2549;52.128;21.068;2023-05-07T14:17:40;1.30;;;1.20;;
5060;SDS011;2549;52.128;21.068;2023-05-07T14:20:07;6.07;;;0.97;;
5060;SDS011;2549;52.128;21.068;2023-05-07T14:22:35;1.63;;;1.03;;
5060;SDS011;2549;52.128;21.068;2023-05-07T14:25:02;0.90;;;0.90;;
5060;SDS011;2549;52.128;21.068;2023-05-07T14:27:32;1.10;;;1.10;;
5060;SDS011;2549;52.128;21.068;2023-05-07T14:29:59;1.27;;;0.90;;
5060;SDS011;2549;52.128;21.068;2023-05-07T14:32:26;1.17;;;1.10;;
5060;SDS011;2549;52.128;21.068;2023-05-07T14:34:53;1.00;;;1.00;;
5060;SDS011;2549;52.128;21.068;2023-05-07T14:37:20;1.63;;;1.03;;
5060;SDS011;2549;52.128;21.068;2023-05-07T14:39:47;0.80;;;0.80;;
5060;SDS011;2549;52.128;21.068;2023-05-07T14:42:16;1.13;;;1.13;;
5060;SDS011;2549;52.128;21.068;2023-05-07T14:44:43;3.30;;;1.30;;
5060;SDS011;2549;52.128;21.068;2023-05-07T14:47:12;3.03;;;0.97;;
5060;SDS011;2549;52.128;21.068;2023-05-07T14:49:39;0.97;;;0.97;;
5060;SDS011;2549;52.128;21.068;2023-05-07T14:52:07;0.80;;;0.80;;
5060;SDS011;2549;52.128;21.068;2023-05-07T14:54:36;2.10;;;0.97;;
5060;SDS011;2549;52.128;21.068;2023-05-07T14:57:05;1.47;;;1.00;;
5060;SDS011;2549;52.128;21.068;2023-05-07T14:59:33;3.77;;;1.53;;
5060;SDS011;2549;52.128;21.068;2023-05-07T15:02:00;1.17;;;1.10;;
5060;SDS011;2549;52.128;21.068;2023-05-07T15:04:31;2.10;;;1.10;;
5060;SDS011;2549;52.128;21.068;2023-05-07T15:06:58;1.40;;;1.30;;
5060;SDS011;2549;52.128;21.068;2023-05-07T15:09:25;0.73;;;0.73;;
5060;SDS011;2549;52.128;21.068;2023-05-07T15:11:52;1.80;;;1.17;;
5060;SDS011;2549;52.128;21.068;2023-05-07T15:14:19;0.60;;;0.60;;
5060;SDS011;2549;52.128;21.068;2023-05-07T15:16:48;1.40;;;1.17;;
5060;SDS011;2549;52.128;21.068;2023-05-07T15:19:15;1.00;;;1.00;;
5060;SDS011;2549;52.128;21.068;2023-05-07T15:21:43;0.90;;;0.90;;
5060;SDS011;2549;52.128;21.068;2023-05-07T15:24:10;1.93;;;1.30;;
5060;SDS011;2549;52.128;21.068;2023-05-07T15:26:36;0.80;;;0.80;;